sensor_id;sensor_type;location;lat;lon;timestamp;P1;durP1;ratioP1;P2;durP2;ratioP2
25327;SDS011;13279;51.300;12.394;2023-04-16T00:00:01;32.63;;;18.93;;
25327;SDS011;13279;51.300;12.394;2023-04-16T00:02:36;29.53;;;17.63;;
25327;SDS011;13279;51.300;12.394;2023-04-16T00:05:04;30.23;;;18.50;;
25327;SDS011;13279;51.300;12.394;2023-04-16T00:07:34;33.17;;;18.30;;
25327;SDS011;13279;51.300;12.394;2023-04-16T00:10:01;33.03;;;19.07;;
25327;SDS011;13279;51.300;12.394;2023-04-16T00:12:29;35.50;;;18.50;;
25327;SDS011;13279;51.300;12.394;2023-04-16T00:14:57;32.63;;;18.07;;
25327;SDS011;13279;51.300;12.394;2023-04-16T00:17:24;29.57;;;17.83;;
25327;SDS011;13279;51.300;12.394;2023-04-16T00:19:51;31.70;;;18.90;;
25327;SDS011;13279;51.300;12.394;2023-04-16T00:22:19;30.70;;;19.07;;
25327;SDS011;13279;51.300;12.394;2023-04-16T00:24:48;29.00;;;17.60;;
25327;SDS011;13279;51.300;12.394;2023-04-16T00:27:17;32.83;;;17.50;;
25327;SDS011;13279;51.300;12.394;2023-04-16T00:29:45;30.00;;;17.10;;
25327;SDS011;13279;51.300;12.394;2023-04-16T00:32:13;28.23;;;17.03;;
25327;SDS011;13279;51.300;12.394;2023-04-16T00:34:40;31.90;;;18.70;;
25327;SDS011;13279;51.300;12.394;2023-04-16T00:37:07;29.80;;;18.10;;
25327;SDS011;13279;51.300;12.394;2023-04-16T00:39:35;31.13;;;17.80;;
25327;SDS011;13279;51.300;12.394;2023-04-16T00:42:04;34.30;;;18.90;;
25327;SDS011;13279;51.300;12.394;2023-04-16T00:44:32;31.70;;;18.13;;
25327;SDS011;13279;51.300;12.394;2023-04-16T00:47:00;35.57;;;18.63;;
25327;SDS011;13279;51.300;12.394;2023-04-16T00:49:28;35.27;;;18.60;;
25327;SDS011;13279;51.300;12.394;2023-04-16T00:51:58;37.37;;;19.70;;
25327;SDS011;13279;51.300;12.394;2023-04-16T00:54:27;34.80;;;19.50;;
25327;SDS011;13279;51.300;12.394;2023-04-16T00:56:54;32.10;;;17.83;;
25327;SDS011;13279;51.300;12.394;2023-04-16T00:59:24;36.33;;;20.03;;
25327;SDS011;13279;51.300;12.394;2023-04-16T01:01:53;35.83;;;19.20;;
25327;SDS011;13279;51.300;12.394;2023-04-16T01:04:20;38.03;;;19.20;;
25327;SDS011;13279;51.300;12.394;2023-04-16T01:06:48;42.07;;;19.33;;
25327;SDS011;13279;51.300;12.394;2023-04-16T01:09:15;40.83;;;19.07;;
25327;SDS011;13279;51.300;12.394;2023-04-16T01:11:43;41.10;;;20.57;;
25327;SDS011;13279;51.300;12.394;2023-04-16T01:14:11;36.87;;;19.43;;
25327;SDS011;13279;51.300;12.394;2023-04-16T01:16:40;36.63;;;18.43;;
25327;SDS011;13279;51.300;12.394;2023-04-16T01:19:08;38.47;;;19.57;;
25327;SDS011;13279;51.300;12.394;2023-04-16T01:21:37;37.30;;;19.90;;
25327;SDS011;13279;51.300;12.394;2023-04-16T01:24:04;34.83;;;18.00;;
25327;SDS011;13279;51.300;12.394;2023-04-16T01:26:32;37.60;;;18.47;;
25327;SDS011;13279;51.300;12.394;2023-04-16T01:29:00;35.00;;;17.63;;
25327;SDS011;13279;51.300;12.394;2023-04-16T01:31:28;36.50;;;16.37;;
25327;SDS011;13279;51.300;12.394;2023-04-16T01:34:34;32.50;;;16.23;;
25327;SDS011;13279;51.300;12.394;2023-04-16T01:37:03;35.07;;;16.73;;
25327;SDS011;13279;51.300;12.394;2023-04-16T01:39:31;38.80;;;16.97;;
25327;SDS011;13279;51.300;12.394;2023-04-16T01:41:59;32.47;;;16.13;;
25327;SDS011;13279;51.300;12.394;2023-04-16T01:44:26;34.87;;;17.47;;
25327;SDS011;13279;51.300;12.394;2023-04-16T01:46:55;35.07;;;17.43;;
25327;SDS011;13279;51.300;12.394;2023-04-16T01:49:24;36.87;;;17.37;;
25327;SDS011;13279;51.300;12.394;2023-04-16T01:51:51;42.50;;;17.80;;
25327;SDS011;13279;51.300;12.394;2023-04-16T01:54:20;37.73;;;17.53;;
25327;SDS011;13279;51.300;12.394;2023-04-16T01:56:48;43.83;;;18.20;;
25327;SDS011;13279;51.300;12.394;2023-04-16T01:59:16;48.17;;;18.13;;
25327;SDS011;13279;51.300;12.394;2023-04-16T02:01:43;45.93;;;18.77;;
25327;SDS011;13279;51.300;12.394;2023-04-16T02:04:11;44.73;;;20.07;;
25327;SDS011;13279;51.300;12.394;2023-04-16T02:06:39;53.23;;;20.23;;
25327;SDS011;13279;51.300;12.394;2023-04-16T02:09:07;53.83;;;20.40;;
25327;SDS011;13279;51.300;12.394;2023-04-16T02:11:37;47.97;;;19.83;;
25327;SDS011;13279;51.300;12.394;2023-04-16T02:14:05;46.93;;;20.03;;
25327;SDS011;13279;51.300;12.394;2023-04-16T02:16:34;50.73;;;19.50;;
25327;SDS011;13279;51.300;12.394;2023-04-16T02:19:20;59.90;;;21.87;;
25327;SDS011;13279;51.300;12.394;2023-04-16T02:21:47;74.97;;;23.70;;
25327;SDS011;13279;51.300;12.394;2023-04-16T02:24:16;56.30;;;23.73;;
25327;SDS011;13279;51.300;12.394;2023-04-16T02:26:46;61.10;;;22.27;;
25327;SDS011;13279;51.300;12.394;2023-04-16T02:29:16;58.43;;;23.37;;
25327;SDS011;13279;51.300;12.394;2023-04-16T02:31:50;58.37;;;23.10;;
25327;SDS011;13279;51.300;12.394;2023-04-16T02:34:18;62.23;;;24.00;;
25327;SDS011;13279;51.300;12.394;2023-04-16T02:36:46;61.27;;;23.43;;
25327;SDS011;13279;51.300;12.394;2023-04-16T02:39:15;52.80;;;23.43;;
25327;SDS011;13279;51.300;12.394;2023-04-16T02:41:42;58.67;;;22.60;;
25327;SDS011;13279;51.300;12.394;2023-04-16T02:44:11;48.80;;;22.10;;
25327;SDS011;13279;51.300;12.394;2023-04-16T02:46:39;59.40;;;23.13;;
25327;SDS011;13279;51.300;12.394;2023-04-16T02:49:07;63.90;;;24.77;;
25327;SDS011;13279;51.300;12.394;2023-04-16T02:51:35;51.27;;;21.63;;
25327;SDS011;13279;51.300;12.394;2023-04-16T02:54:03;55.13;;;23.47;;
25327;SDS011;13279;51.300;12.394;2023-04-16T02:56:31;58.80;;;24.30;;
25327;SDS011;13279;51.300;12.394;2023-04-16T02:58:58;58.50;;;24.80;;
25327;SDS011;13279;51.300;12.394;2023-04-16T03:01:27;51.73;;;24.10;;
25327;SDS011;13279;51.300;12.394;2023-04-16T03:03:54;61.70;;;23.80;;
25327;SDS011;13279;51.300;12.394;2023-04-16T03:06:22;51.70;;;22.87;;
25327;SDS011;13279;51.300;12.394;2023-04-16T03:08:50;51.37;;;22.20;;
25327;SDS011;13279;51.300;12.394;2023-04-16T03:11:18;52.77;;;22.90;;
25327;SDS011;13279;51.300;12.394;2023-04-16T03:13:46;45.27;;;20.50;;
25327;SDS011;13279;51.300;12.394;2023-04-16T03:16:13;41.20;;;20.00;;
25327;SDS011;13279;51.300;12.394;2023-04-16T03:18:42;42.23;;;19.57;;
25327;SDS011;13279;51.300;12.394;2023-04-16T03:21:10;36.90;;;18.47;;
25327;SDS011;13279;51.300;12.394;2023-04-16T03:23:37;38.30;;;19.53;;
25327;SDS011;13279;51.300;12.394;2023-04-16T03:26:04;37.20;;;19.30;;
25327;SDS011;13279;51.300;12.394;2023-04-16T03:28:32;34.27;;;17.50;;
25327;SDS011;13279;51.300;12.394;2023-04-16T03:31:00;32.87;;;17.33;;
25327;SDS011;13279;51.300;12.394;2023-04-16T03:33:28;35.33;;;17.93;;
25327;SDS011;13279;51.300;12.394;2023-04-16T03:35:57;32.80;;;17.30;;
25327;SDS011;13279;51.300;12.394;2023-04-16T03:38:28;32.10;;;16.17;;
25327;SDS011;13279;51.300;12.394;2023-04-16T03:40:57;27.13;;;15.67;;
25327;SDS011;13279;51.300;12.394;2023-04-16T03:43:25;34.50;;;16.87;;
25327;SDS011;13279;51.300;12.394;2023-04-16T03:45:53;33.50;;;17.37;;
25327;SDS011;13279;51.300;12.394;2023-04-16T03:48:22;31.57;;;16.53;;
25327;SDS011;13279;51.300;12.394;2023-04-16T03:50:52;34.30;;;16.10;;
25327;SDS011;13279;51.300;12.394;2023-04-16T03:53:21;40.10;;;17.63;;
25327;SDS011;13279;51.300;12.394;2023-04-16T03:55:49;37.73;;;17.13;;
25327;SDS011;13279;51.300;12.394;2023-04-16T03:58:19;30.07;;;15.07;;
25327;SDS011;13279;51.300;12.394;2023-04-16T04:00:47;36.13;;;14.77;;
25327;SDS011;13279;51.300;12.394;2023-04-16T04:03:16;35.30;;;16.73;;
25327;SDS011;13279;51.300;12.394;2023-04-16T04:05:46;29.50;;;14.03;;
25327;SDS011;13279;51.300;12.394;2023-04-16T04:08:19;27.33;;;14.87;;
25327;SDS011;13279;51.300;12.394;2023-04-16T04:10:48;26.53;;;14.27;;
25327;SDS011;13279;51.300;12.394;2023-04-16T04:13:20;29.33;;;14.27;;
25327;SDS011;13279;51.300;12.394;2023-04-16T04:15:49;30.50;;;15.73;;
25327;SDS011;13279;51.300;12.394;2023-04-16T04:18:18;30.60;;;15.67;;
25327;SDS011;13279;51.300;12.394;2023-04-16T04:20:45;38.40;;;16.63;;
25327;SDS011;13279;51.300;12.394;2023-04-16T04:23:15;35.10;;;15.93;;
25327;SDS011;13279;51.300;12.394;2023-04-16T04:25:44;40.47;;;16.17;;
25327;SDS011;13279;51.300;12.394;2023-04-16T04:28:13;35.53;;;16.37;;
25327;SDS011;13279;51.300;12.394;2023-04-16T04:30:41;41.03;;;16.87;;
25327;SDS011;13279;51.300;12.394;2023-04-16T04:33:10;37.47;;;16.60;;
25327;SDS011;13279;51.300;12.394;2023-04-16T04:35:37;39.00;;;17.20;;
25327;SDS011;13279;51.300;12.394;2023-04-16T04:38:06;36.93;;;15.33;;
25327;SDS011;13279;51.300;12.394;2023-04-16T04:40:34;37.93;;;15.57;;
25327;SDS011;13279;51.300;12.394;2023-04-16T04:43:02;36.83;;;16.30;;
25327;SDS011;13279;51.300;12.394;2023-04-16T04:45:31;35.13;;;14.80;;
25327;SDS011;13279;51.300;12.394;2023-04-16T04:47:58;37.20;;;14.73;;
25327;SDS011;13279;51.300;12.394;2023-04-16T04:50:25;36.90;;;14.07;;
25327;SDS011;13279;51.300;12.394;2023-04-16T04:52:53;30.30;;;14.13;;
25327;SDS011;13279;51.300;12.394;2023-04-16T04:55:20;29.40;;;14.00;;
25327;SDS011;13279;51.300;12.394;2023-04-16T04:57:49;29.90;;;13.70;;
25327;SDS011;13279;51.300;12.394;2023-04-16T05:00:18;25.77;;;12.40;;
25327;SDS011;13279;51.300;12.394;2023-04-16T05:02:53;25.80;;;12.47;;
25327;SDS011;13279;51.300;12.394;2023-04-16T05:05:20;29.07;;;12.60;;
25327;SDS011;13279;51.300;12.394;2023-04-16T05:07:48;34.33;;;13.70;;
25327;SDS011;13279;51.300;12.394;2023-04-16T05:10:20;30.93;;;13.90;;
25327;SDS011;13279;51.300;12.394;2023-04-16T05:13:05;34.97;;;14.37;;
25327;SDS011;13279;51.300;12.394;2023-04-16T05:15:34;36.20;;;15.00;;
25327;SDS011;13279;51.300;12.394;2023-04-16T05:18:03;35.40;;;14.63;;
25327;SDS011;13279;51.300;12.394;2023-04-16T05:20:30;30.60;;;12.97;;
25327;SDS011;13279;51.300;12.394;2023-04-16T05:22:58;30.30;;;13.20;;
25327;SDS011;13279;51.300;12.394;2023-04-16T05:25:26;26.10;;;12.57;;
25327;SDS011;13279;51.300;12.394;2023-04-16T05:27:53;22.80;;;11.03;;
25327;SDS011;13279;51.300;12.394;2023-04-16T05:30:21;21.07;;;10.40;;
25327;SDS011;13279;51.300;12.394;2023-04-16T05:32:48;21.83;;;11.30;;
25327;SDS011;13279;51.300;12.394;2023-04-16T05:35:17;20.37;;;10.40;;
25327;SDS011;13279;51.300;12.394;2023-04-16T05:37:44;21.37;;;10.63;;
25327;SDS011;13279;51.300;12.394;2023-04-16T05:40:12;17.27;;;10.70;;
25327;SDS011;13279;51.300;12.394;2023-04-16T05:42:40;19.53;;;9.87;;
25327;SDS011;13279;51.300;12.394;2023-04-16T05:45:07;19.53;;;9.90;;
25327;SDS011;13279;51.300;12.394;2023-04-16T05:47:35;20.83;;;9.87;;
25327;SDS011;13279;51.300;12.394;2023-04-16T05:50:03;16.50;;;8.30;;
25327;SDS011;13279;51.300;12.394;2023-04-16T05:52:32;20.07;;;9.33;;
25327;SDS011;13279;51.300;12.394;2023-04-16T05:54:59;14.57;;;8.70;;
25327;SDS011;13279;51.300;12.394;2023-04-16T05:57:27;15.37;;;8.40;;
25327;SDS011;13279;51.300;12.394;2023-04-16T05:59:54;18.80;;;8.93;;
25327;SDS011;13279;51.300;12.394;2023-04-16T06:02:22;18.43;;;8.80;;
25327;SDS011;13279;51.300;12.394;2023-04-16T06:04:49;22.90;;;9.90;;
25327;SDS011;13279;51.300;12.394;2023-04-16T06:07:17;21.93;;;9.57;;
25327;SDS011;13279;51.300;12.394;2023-04-16T06:09:46;18.10;;;9.53;;
25327;SDS011;13279;51.300;12.394;2023-04-16T06:12:14;16.83;;;9.37;;
25327;SDS011;13279;51.300;12.394;2023-04-16T06:14:42;18.17;;;9.13;;
25327;SDS011;13279;51.300;12.394;2023-04-16T06:17:09;19.37;;;10.13;;
25327;SDS011;13279;51.300;12.394;2023-04-16T06:19:37;17.07;;;9.70;;
25327;SDS011;13279;51.300;12.394;2023-04-16T06:22:05;17.67;;;9.27;;
25327;SDS011;13279;51.300;12.394;2023-04-16T06:24:33;18.67;;;10.07;;
25327;SDS011;13279;51.300;12.394;2023-04-16T06:27:01;17.50;;;9.43;;
25327;SDS011;13279;51.300;12.394;2023-04-16T06:29:29;17.07;;;8.23;;
25327;SDS011;13279;51.300;12.394;2023-04-16T06:31:57;19.80;;;10.17;;
25327;SDS011;13279;51.300;12.394;2023-04-16T06:34:25;20.03;;;9.93;;
25327;SDS011;13279;51.300;12.394;2023-04-16T06:36:53;24.17;;;10.07;;
25327;SDS011;13279;51.300;12.394;2023-04-16T06:39:20;19.63;;;10.00;;
25327;SDS011;13279;51.300;12.394;2023-04-16T06:41:48;17.37;;;10.00;;
25327;SDS011;13279;51.300;12.394;2023-04-16T06:44:18;16.33;;;9.00;;
25327;SDS011;13279;51.300;12.394;2023-04-16T06:46:45;17.43;;;8.60;;
25327;SDS011;13279;51.300;12.394;2023-04-16T06:49:12;16.73;;;9.00;;
25327;SDS011;13279;51.300;12.394;2023-04-16T06:51:40;20.80;;;9.77;;
25327;SDS011;13279;51.300;12.394;2023-04-16T06:54:08;19.37;;;9.40;;
25327;SDS011;13279;51.300;12.394;2023-04-16T06:56:35;14.13;;;7.20;;
25327;SDS011;13279;51.300;12.394;2023-04-16T06:59:03;14.97;;;7.77;;
25327;SDS011;13279;51.300;12.394;2023-04-16T07:01:32;15.60;;;8.43;;
25327;SDS011;13279;51.300;12.394;2023-04-16T07:03:59;15.80;;;7.93;;
25327;SDS011;13279;51.300;12.394;2023-04-16T07:06:26;13.00;;;7.33;;
25327;SDS011;13279;51.300;12.394;2023-04-16T07:08:54;11.60;;;7.17;;
25327;SDS011;13279;51.300;12.394;2023-04-16T07:11:21;16.80;;;9.00;;
25327;SDS011;13279;51.300;12.394;2023-04-16T07:13:50;15.03;;;7.90;;
25327;SDS011;13279;51.300;12.394;2023-04-16T07:16:18;17.37;;;8.43;;
25327;SDS011;13279;51.300;12.394;2023-04-16T07:18:47;18.60;;;9.00;;
25327;SDS011;13279;51.300;12.394;2023-04-16T07:21:14;13.83;;;6.77;;
25327;SDS011;13279;51.300;12.394;2023-04-16T07:23:42;11.70;;;7.00;;
25327;SDS011;13279;51.300;12.394;2023-04-16T07:26:10;12.50;;;7.17;;
25327;SDS011;13279;51.300;12.394;2023-04-16T07:28:37;10.93;;;7.07;;
25327;SDS011;13279;51.300;12.394;2023-04-16T07:31:05;11.07;;;6.90;;
25327;SDS011;13279;51.300;12.394;2023-04-16T07:33:33;11.70;;;7.00;;
25327;SDS011;13279;51.300;12.394;2023-04-16T07:36:02;10.97;;;7.47;;
25327;SDS011;13279;51.300;12.394;2023-04-16T07:38:29;9.63;;;6.90;;
25327;SDS011;13279;51.300;12.394;2023-04-16T07:40:56;8.30;;;6.20;;
25327;SDS011;13279;51.300;12.394;2023-04-16T07:43:24;7.33;;;5.87;;
25327;SDS011;13279;51.300;12.394;2023-04-16T07:45:51;8.30;;;5.67;;
25327;SDS011;13279;51.300;12.394;2023-04-16T07:48:20;8.10;;;5.57;;
25327;SDS011;13279;51.300;12.394;2023-04-16T07:50:47;8.33;;;5.40;;
25327;SDS011;13279;51.300;12.394;2023-04-16T07:53:16;7.40;;;4.73;;
25327;SDS011;13279;51.300;12.394;2023-04-16T07:55:44;6.03;;;4.77;;
25327;SDS011;13279;51.300;12.394;2023-04-16T07:58:12;5.87;;;3.20;;
25327;SDS011;13279;51.300;12.394;2023-04-16T08:00:39;6.80;;;3.67;;
25327;SDS011;13279;51.300;12.394;2023-04-16T08:03:07;8.33;;;4.43;;
25327;SDS011;13279;51.300;12.394;2023-04-16T08:05:35;12.77;;;5.87;;
25327;SDS011;13279;51.300;12.394;2023-04-16T08:08:02;8.37;;;5.37;;
25327;SDS011;13279;51.300;12.394;2023-04-16T08:10:31;7.37;;;4.80;;
25327;SDS011;13279;51.300;12.394;2023-04-16T08:12:59;7.73;;;5.47;;
25327;SDS011;13279;51.300;12.394;2023-04-16T08:15:26;10.63;;;5.77;;
25327;SDS011;13279;51.300;12.394;2023-04-16T08:17:54;9.23;;;6.03;;
25327;SDS011;13279;51.300;12.394;2023-04-16T08:20:21;6.07;;;5.10;;
25327;SDS011;13279;51.300;12.394;2023-04-16T08:22:48;7.50;;;5.43;;
25327;SDS011;13279;51.300;12.394;2023-04-16T08:25:16;9.53;;;5.23;;
25327;SDS011;13279;51.300;12.394;2023-04-16T08:27:45;8.47;;;5.27;;
25327;SDS011;13279;51.300;12.394;2023-04-16T08:30:13;7.43;;;4.30;;
25327;SDS011;13279;51.300;12.394;2023-04-16T08:32:41;8.17;;;5.30;;
25327;SDS011;13279;51.300;12.394;2023-04-16T08:35:08;6.13;;;4.53;;
25327;SDS011;13279;51.300;12.394;2023-04-16T08:37:36;7.33;;;4.00;;
25327;SDS011;13279;51.300;12.394;2023-04-16T08:40:04;3.97;;;3.30;;
25327;SDS011;13279;51.300;12.394;2023-04-16T08:42:33;4.80;;;3.20;;
25327;SDS011;13279;51.300;12.394;2023-04-16T08:45:10;11.03;;;4.03;;
25327;SDS011;13279;51.300;12.394;2023-04-16T08:47:39;4.10;;;3.20;;
25327;SDS011;13279;51.300;12.394;2023-04-16T08:50:10;3.87;;;3.40;;
25327;SDS011;13279;51.300;12.394;2023-04-16T08:52:42;6.37;;;4.43;;
25327;SDS011;13279;51.300;12.394;2023-04-16T08:55:15;6.13;;;4.30;;
25327;SDS011;13279;51.300;12.394;2023-04-16T08:57:46;5.90;;;4.30;;
25327;SDS011;13279;51.300;12.394;2023-04-16T09:00:19;5.83;;;3.73;;
25327;SDS011;13279;51.300;12.394;2023-04-16T09:02:47;5.60;;;3.77;;
25327;SDS011;13279;51.300;12.394;2023-04-16T09:05:15;7.80;;;4.13;;
25327;SDS011;13279;51.300;12.394;2023-04-16T09:07:45;5.97;;;4.77;;
25327;SDS011;13279;51.300;12.394;2023-04-16T09:10:14;9.57;;;5.57;;
25327;SDS011;13279;51.300;12.394;2023-04-16T09:12:43;8.87;;;4.70;;
25327;SDS011;13279;51.300;12.394;2023-04-16T09:15:11;8.80;;;5.00;;
25327;SDS011;13279;51.300;12.394;2023-04-16T09:17:40;10.50;;;4.57;;
25327;SDS011;13279;51.300;12.394;2023-04-16T09:20:08;10.80;;;5.57;;
25327;SDS011;13279;51.300;12.394;2023-04-16T09:22:36;10.67;;;5.53;;
25327;SDS011;13279;51.300;12.394;2023-04-16T09:25:05;15.13;;;5.30;;
25327;SDS011;13279;51.300;12.394;2023-04-16T09:27:32;8.43;;;4.47;;
25327;SDS011;13279;51.300;12.394;2023-04-16T09:30:00;5.43;;;4.13;;
25327;SDS011;13279;51.300;12.394;2023-04-16T09:32:29;5.70;;;4.23;;
25327;SDS011;13279;51.300;12.394;2023-04-16T09:34:59;10.63;;;4.70;;
25327;SDS011;13279;51.300;12.394;2023-04-16T09:37:27;6.37;;;3.53;;
25327;SDS011;13279;51.300;12.394;2023-04-16T09:39:56;6.50;;;3.90;;
25327;SDS011;13279;51.300;12.394;2023-04-16T09:42:25;6.70;;;4.23;;
25327;SDS011;13279;51.300;12.394;2023-04-16T09:44:54;4.43;;;3.47;;
25327;SDS011;13279;51.300;12.394;2023-04-16T09:47:22;5.27;;;3.63;;
25327;SDS011;13279;51.300;12.394;2023-04-16T09:49:51;5.57;;;3.43;;
25327;SDS011;13279;51.300;12.394;2023-04-16T09:52:21;7.70;;;3.40;;
25327;SDS011;13279;51.300;12.394;2023-04-16T09:54:49;4.50;;;3.50;;
25327;SDS011;13279;51.300;12.394;2023-04-16T09:57:18;7.83;;;3.43;;
25327;SDS011;13279;51.300;12.394;2023-04-16T09:59:47;6.43;;;5.07;;
25327;SDS011;13279;51.300;12.394;2023-04-16T10:02:18;10.43;;;5.70;;
25327;SDS011;13279;51.300;12.394;2023-04-16T10:04:48;12.30;;;7.97;;
25327;SDS011;13279;51.300;12.394;2023-04-16T10:07:16;13.07;;;8.27;;
25327;SDS011;13279;51.300;12.394;2023-04-16T10:09:46;15.23;;;9.90;;
25327;SDS011;13279;51.300;12.394;2023-04-16T10:12:14;20.67;;;11.60;;
25327;SDS011;13279;51.300;12.394;2023-04-16T10:14:42;21.70;;;11.60;;
25327;SDS011;13279;51.300;12.394;2023-04-16T10:17:10;21.93;;;10.50;;
25327;SDS011;13279;51.300;12.394;2023-04-16T10:19:39;14.93;;;9.47;;
25327;SDS011;13279;51.300;12.394;2023-04-16T10:22:08;10.80;;;7.10;;
25327;SDS011;13279;51.300;12.394;2023-04-16T10:24:37;9.43;;;6.77;;
25327;SDS011;13279;51.300;12.394;2023-04-16T10:27:08;6.53;;;5.83;;
25327;SDS011;13279;51.300;12.394;2023-04-16T10:29:35;8.00;;;6.00;;
25327;SDS011;13279;51.300;12.394;2023-04-16T10:32:04;9.33;;;6.07;;
25327;SDS011;13279;51.300;12.394;2023-04-16T10:34:33;9.20;;;6.40;;
25327;SDS011;13279;51.300;12.394;2023-04-16T10:37:01;9.23;;;6.73;;
25327;SDS011;13279;51.300;12.394;2023-04-16T10:39:29;8.57;;;7.03;;
25327;SDS011;13279;51.300;12.394;2023-04-16T10:42:08;9.10;;;7.17;;
25327;SDS011;13279;51.300;12.394;2023-04-16T10:44:36;9.20;;;7.40;;
25327;SDS011;13279;51.300;12.394;2023-04-16T10:47:08;10.23;;;7.73;;
25327;SDS011;13279;51.300;12.394;2023-04-16T10:49:39;10.10;;;8.00;;
25327;SDS011;13279;51.300;12.394;2023-04-16T10:52:08;13.10;;;8.43;;
25327;SDS011;13279;51.300;12.394;2023-04-16T10:54:37;11.43;;;7.93;;
25327;SDS011;13279;51.300;12.394;2023-04-16T10:57:06;11.00;;;7.80;;
25327;SDS011;13279;51.300;12.394;2023-04-16T10:59:37;8.80;;;7.07;;
25327;SDS011;13279;51.300;12.394;2023-04-16T11:02:08;11.27;;;7.80;;
25327;SDS011;13279;51.300;12.394;2023-04-16T11:04:41;13.30;;;8.63;;
25327;SDS011;13279;51.300;12.394;2023-04-16T11:07:15;15.67;;;9.20;;
25327;SDS011;13279;51.300;12.394;2023-04-16T11:09:45;14.90;;;8.93;;
25327;SDS011;13279;51.300;12.394;2023-04-16T11:12:24;15.23;;;8.17;;
25327;SDS011;13279;51.300;12.394;2023-04-16T11:14:55;12.80;;;7.73;;
25327;SDS011;13279;51.300;12.394;2023-04-16T11:17:27;10.30;;;7.50;;
25327;SDS011;13279;51.300;12.394;2023-04-16T11:19:55;13.30;;;7.00;;
25327;SDS011;13279;51.300;12.394;2023-04-16T11:22:22;10.67;;;6.93;;
25327;SDS011;13279;51.300;12.394;2023-04-16T11:24:52;11.53;;;7.17;;
25327;SDS011;13279;51.300;12.394;2023-04-16T11:27:21;7.87;;;6.43;;
25327;SDS011;13279;51.300;12.394;2023-04-16T11:29:57;9.47;;;7.10;;
25327;SDS011;13279;51.300;12.394;2023-04-16T11:32:26;9.43;;;6.67;;
25327;SDS011;13279;51.300;12.394;2023-04-16T11:34:57;7.63;;;6.70;;
25327;SDS011;13279;51.300;12.394;2023-04-16T11:37:31;7.80;;;6.57;;
25327;SDS011;13279;51.300;12.394;2023-04-16T11:40:01;6.30;;;5.70;;
25327;SDS011;13279;51.300;12.394;2023-04-16T11:42:32;6.30;;;5.67;;
25327;SDS011;13279;51.300;12.394;2023-04-16T11:45:02;6.23;;;5.17;;
25327;SDS011;13279;51.300;12.394;2023-04-16T11:47:30;5.97;;;5.27;;
25327;SDS011;13279;51.300;12.394;2023-04-16T11:52:45;4.50;;;4.10;;
25327;SDS011;13279;51.300;12.394;2023-04-16T11:55:13;4.50;;;4.10;;
25327;SDS011;13279;51.300;12.394;2023-04-16T11:57:43;4.70;;;4.00;;
25327;SDS011;13279;51.300;12.394;2023-04-16T12:00:12;4.97;;;4.27;;
25327;SDS011;13279;51.300;12.394;2023-04-16T12:02:40;5.43;;;4.60;;
25327;SDS011;13279;51.300;12.394;2023-04-16T12:07:55;5.33;;;4.70;;
25327;SDS011;13279;51.300;12.394;2023-04-16T12:10:22;5.53;;;4.53;;
25327;SDS011;13279;51.300;12.394;2023-04-16T12:12:53;4.33;;;3.93;;
25327;SDS011;13279;51.300;12.394;2023-04-16T12:15:21;4.87;;;4.47;;
25327;SDS011;13279;51.300;12.394;2023-04-16T12:17:49;5.03;;;4.50;;
25327;SDS011;13279;51.300;12.394;2023-04-16T12:20:19;4.97;;;4.20;;
25327;SDS011;13279;51.300;12.394;2023-04-16T12:22:46;5.07;;;4.57;;
25327;SDS011;13279;51.300;12.394;2023-04-16T12:25:16;5.03;;;4.37;;
25327;SDS011;13279;51.300;12.394;2023-04-16T12:27:44;4.93;;;3.97;;
25327;SDS011;13279;51.300;12.394;2023-04-16T12:30:15;4.80;;;4.30;;
25327;SDS011;13279;51.300;12.394;2023-04-16T12:32:44;4.53;;;4.13;;
25327;SDS011;13279;51.300;12.394;2023-04-16T12:35:12;3.60;;;3.30;;
25327;SDS011;13279;51.300;12.394;2023-04-16T12:37:54;3.73;;;3.43;;
25327;SDS011;13279;51.300;12.394;2023-04-16T12:40:22;3.73;;;3.33;;
25327;SDS011;13279;51.300;12.394;2023-04-16T12:42:49;4.47;;;3.77;;
25327;SDS011;13279;51.300;12.394;2023-04-16T12:45:18;4.00;;;3.33;;
25327;SDS011;13279;51.300;12.394;2023-04-16T12:47:46;3.47;;;3.03;;
25327;SDS011;13279;51.300;12.394;2023-04-16T12:50:14;3.83;;;3.40;;
25327;SDS011;13279;51.300;12.394;2023-04-16T12:52:42;3.60;;;3.30;;
25327;SDS011;13279;51.300;12.394;2023-04-16T12:55:09;3.97;;;3.63;;
25327;SDS011;13279;51.300;12.394;2023-04-16T12:57:39;4.13;;;3.43;;
25327;SDS011;13279;51.300;12.394;2023-04-16T13:00:07;4.90;;;4.37;;
25327;SDS011;13279;51.300;12.394;2023-04-16T13:02:38;4.90;;;4.07;;
25327;SDS011;13279;51.300;12.394;2023-04-16T13:05:05;4.93;;;4.30;;
25327;SDS011;13279;51.300;12.394;2023-04-16T13:07:34;3.93;;;3.50;;
25327;SDS011;13279;51.300;12.394;2023-04-16T13:10:01;3.97;;;3.67;;
25327;SDS011;13279;51.300;12.394;2023-04-16T13:12:29;4.03;;;3.57;;
25327;SDS011;13279;51.300;12.394;2023-04-16T13:14:56;3.67;;;3.33;;
25327;SDS011;13279;51.300;12.394;2023-04-16T13:17:24;4.33;;;3.87;;
25327;SDS011;13279;51.300;12.394;2023-04-16T13:19:53;6.20;;;4.13;;
25327;SDS011;13279;51.300;12.394;2023-04-16T13:22:21;5.43;;;4.20;;
25327;SDS011;13279;51.300;12.394;2023-04-16T13:24:48;4.97;;;4.23;;
25327;SDS011;13279;51.300;12.394;2023-04-16T13:27:16;5.50;;;4.13;;
25327;SDS011;13279;51.300;12.394;2023-04-16T13:29:43;4.43;;;4.00;;
25327;SDS011;13279;51.300;12.394;2023-04-16T13:32:11;5.00;;;3.90;;
25327;SDS011;13279;51.300;12.394;2023-04-16T13:34:38;6.10;;;4.77;;
25327;SDS011;13279;51.300;12.394;2023-04-16T13:37:08;6.20;;;5.53;;
25327;SDS011;13279;51.300;12.394;2023-04-16T13:39:35;5.90;;;4.97;;
25327;SDS011;13279;51.300;12.394;2023-04-16T13:42:02;5.10;;;4.60;;
25327;SDS011;13279;51.300;12.394;2023-04-16T13:44:29;5.67;;;4.87;;
25327;SDS011;13279;51.300;12.394;2023-04-16T13:46:57;8.87;;;5.57;;
25327;SDS011;13279;51.300;12.394;2023-04-16T13:49:24;7.43;;;5.67;;
25327;SDS011;13279;51.300;12.394;2023-04-16T13:51:52;7.30;;;5.47;;
25327;SDS011;13279;51.300;12.394;2023-04-16T13:54:21;11.07;;;6.53;;
25327;SDS011;13279;51.300;12.394;2023-04-16T13:56:48;8.00;;;6.20;;
25327;SDS011;13279;51.300;12.394;2023-04-16T13:59:16;8.53;;;6.63;;
25327;SDS011;13279;51.300;12.394;2023-04-16T14:01:45;8.47;;;5.90;;
25327;SDS011;13279;51.300;12.394;2023-04-16T14:04:12;10.13;;;6.60;;
25327;SDS011;13279;51.300;12.394;2023-04-16T14:06:40;9.33;;;6.70;;
25327;SDS011;13279;51.300;12.394;2023-04-16T14:09:07;10.00;;;7.17;;
25327;SDS011;13279;51.300;12.394;2023-04-16T14:11:36;11.40;;;7.33;;
25327;SDS011;13279;51.300;12.394;2023-04-16T14:14:12;11.80;;;8.77;;
25327;SDS011;13279;51.300;12.394;2023-04-16T14:16:39;12.57;;;8.03;;
25327;SDS011;13279;51.300;12.394;2023-04-16T14:19:07;9.87;;;7.87;;
25327;SDS011;13279;51.300;12.394;2023-04-16T14:21:42;10.50;;;7.83;;
25327;SDS011;13279;51.300;12.394;2023-04-16T14:24:11;14.53;;;7.47;;
25327;SDS011;13279;51.300;12.394;2023-04-16T14:26:43;9.77;;;6.80;;
25327;SDS011;13279;51.300;12.394;2023-04-16T14:29:10;9.97;;;6.90;;
25327;SDS011;13279;51.300;12.394;2023-04-16T14:31:38;9.00;;;7.10;;
25327;SDS011;13279;51.300;12.394;2023-04-16T14:34:05;8.57;;;6.73;;